Time;durP1;ratioP1;P1;durP2;ratioP2;P2;SDS_P1;SDS_P2;PMS_P1;PMS_P2;Temp;Humidity;BMP_temperature;BMP_pressure;BME280_temperature;BME280_humidity;BME280_pressure;Samples;Min_cycle;Max_cycle;Signal;HPM_P1;HPM_P2
2022/04/13 00:00:46;;;;;;;3.65;2.60;;;20.80;49.40;;;;;;5032776;28;20254;-68
2022/04/13 00:03:12;;;;;;;2.92;2.58;;;20.80;49.40;;;;;;5032882;28;20182;-69
2022/04/13 00:05:38;;;;;;;3.30;2.85;;;20.80;49.40;;;;;;5031017;28;20214;-68
2022/04/13 00:08:07;;;;;;;4.00;2.67;;;20.80;49.40;;;;;;5047869;28;20199;-68
2022/04/13 00:10:36;;;;;;;8.18;4.95;;;20.80;49.40;;;;;;5030736;28;20183;-68
2022/04/13 00:13:03;;;;;;;4.50;3.78;;;20.80;49.40;;;;;;5031362;28;20190;-69
2022/04/13 00:15:29;;;;;;;5.05;3.75;;;20.80;49.40;;;;;;5032193;28;20211;-68
2022/04/13 00:17:55;;;;;;;5.50;4.03;;;20.80;49.40;;;;;;5047741;28;20191;-68
2022/04/13 00:20:22;;;;;;;7.28;3.88;;;20.80;49.40;;;;;;5032566;28;20203;-68
2022/04/13 00:22:48;;;;;;;4.85;3.70;;;20.80;49.40;;;;;;5047952;28;20198;-68
2022/04/13 00:25:14;;;;;;;5.72;3.50;;;20.80;49.40;;;;;;5031155;28;20257;-69
2022/04/13 00:27:40;;;;;;;4.10;3.28;;;20.80;49.40;;;;;;5032641;28;20628;-68
2022/04/13 00:30:07;;;;;;;4.50;3.60;;;20.80;49.40;;;;;;5031900;28;20191;-68
2022/04/13 00:32:33;;;;;;;4.38;3.53;;;20.80;49.70;;;;;;5031011;28;20646;-68
2022/04/13 00:35:05;;;;;;;4.40;3.80;;;20.80;49.40;;;;;;5031338;28;20238;-69
2022/04/13 00:37:32;;;;;;;5.38;3.60;;;20.80;49.40;;;;;;5047757;28;20190;-68
2022/04/13 00:39:59;;;;;;;4.32;3.10;;;20.80;49.40;;;;;;5031037;28;20179;-68
2022/04/13 00:42:25;;;;;;;4.43;3.20;;;20.80;49.40;;;;;;5032244;28;20167;-68
2022/04/13 00:44:50;;;;;;;5.28;3.38;;;20.80;49.50;;;;;;5031848;28;20222;-68
2022/04/13 00:47:18;;;;;;;7.75;3.40;;;20.80;49.50;;;;;;5030870;28;20186;-68
2022/04/13 00:49:44;;;;;;;6.53;4.18;;;20.80;49.40;;;;;;5030945;28;20183;-68
2022/04/13 00:52:13;;;;;;;5.07;3.28;;;20.80;49.40;;;;;;5047516;28;20274;-68
2022/04/13 00:54:45;;;;;;;3.88;3.25;;;20.80;49.40;;;;;;5031901;28;20210;-68
2022/04/13 00:57:12;;;;;;;4.55;3.28;;;20.70;49.40;;;;;;5030711;28;20249;-68
2022/04/13 00:59:39;;;;;;;4.53;3.42;;;20.80;49.50;;;;;;5030864;28;20241;-68
2022/04/13 01:02:08;;;;;;;4.85;3.50;;;20.70;49.40;;;;;;5032068;28;20187;-69
2022/04/13 01:04:35;;;;;;;5.00;3.65;;;20.80;49.50;;;;;;5046995;28;20194;-69
2022/04/13 01:07:06;;;;;;;4.10;3.35;;;20.80;49.40;;;;;;5030975;28;20192;-69
2022/04/13 01:09:33;;;;;;;4.50;3.47;;;20.80;49.40;;;;;;5031070;28;20190;-68
2022/04/13 01:11:59;;;;;;;4.43;3.25;;;20.80;49.40;;;;;;5047275;28;20184;-69
2022/04/13 01:14:25;;;;;;;4.75;3.47;;;20.80;49.40;;;;;;5047013;28;20172;-68
2022/04/13 01:16:50;;;;;;;4.65;3.45;;;20.70;49.40;;;;;;5030537;28;20180;-68
2022/04/13 01:19:17;;;;;;;3.80;2.63;;;20.70;49.40;;;;;;5031814;28;20254;-68
2022/04/13 01:21:53;;;;;;;3.75;2.45;;;20.70;49.40;;;;;;5047790;28;20187;-69
2022/04/13 01:24:21;;;;;;;5.30;3.38;;;20.70;49.40;;;;;;5034090;28;20257;-69
2022/04/13 01:26:47;;;;;;;3.80;2.88;;;20.70;49.40;;;;;;5034409;28;20192;-68
2022/04/13 01:29:13;;;;;;;3.05;2.58;;;20.70;49.40;;;;;;5035306;28;20183;-68
2022/04/13 01:31:41;;;;;;;3.70;2.35;;;20.70;49.40;;;;;;5034101;28;20282;-69
2022/04/13 01:34:08;;;;;;;3.80;2.67;;;20.70;49.40;;;;;;5034284;28;20184;-68
2022/04/13 01:36:35;;;;;;;4.60;3.10;;;20.70;49.40;;;;;;5034199;28;20195;-68
2022/04/13 01:39:06;;;;;;;2.75;2.55;;;20.70;49.50;;;;;;5050666;28;20203;-68
2022/04/13 01:41:32;;;;;;;5.05;3.15;;;20.70;49.40;;;;;;5035097;28;20202;-68
2022/04/13 01:43:58;;;;;;;3.75;2.97;;;20.70;49.40;;;;;;5034071;28;20232;-68
2022/04/13 01:46:24;;;;;;;4.43;3.22;;;20.70;49.40;;;;;;5034981;28;20298;-68
2022/04/13 01:48:50;;;;;;;3.58;2.88;;;20.70;49.40;;;;;;5033750;28;20188;-68
2022/04/13 01:51:20;;;;;;;3.92;2.97;;;20.70;49.40;;;;;;5050820;28;20191;-68
2022/04/13 01:53:50;;;;;;;3.28;2.90;;;20.70;49.40;;;;;;5050294;28;20172;-68
2022/04/13 01:56:16;;;;;;;4.38;2.85;;;20.70;49.40;;;;;;5033456;28;20199;-68
2022/04/13 01:58:42;;;;;;;3.50;2.75;;;20.70;49.40;;;;;;5033866;28;20558;-69
2022/04/13 02:01:10;;;;;;;2.63;2.28;;;20.70;49.40;;;;;;5050337;28;20251;-68
2022/04/13 02:03:35;;;;;;;3.72;2.53;;;20.70;49.40;;;;;;5034580;28;20596;-68
2022/04/13 02:06:03;;;;;;;4.20;2.65;;;20.70;49.40;;;;;;5032668;28;20215;-68
2022/04/13 02:08:29;;;;;;;3.10;2.50;;;20.70;49.40;;;;;;5032767;28;20187;-68
2022/04/13 02:10:55;;;;;;;3.05;2.45;;;20.70;49.40;;;;;;5049142;28;20175;-69
2022/04/13 02:13:22;;;;;;;2.65;2.30;;;20.70;49.50;;;;;;5048941;28;20183;-69
2022/04/13 02:15:48;;;;;;;3.13;2.72;;;20.70;49.50;;;;;;5032110;28;20215;-69
2022/04/13 02:18:15;;;;;;;2.97;2.58;;;20.70;49.40;;;;;;5033569;28;20187;-69
2022/04/13 02:20:41;;;;;;;2.85;2.50;;;20.70;49.40;;;;;;5032251;28;20187;-68
2022/04/13 02:23:07;;;;;;;2.80;2.20;;;20.70;49.50;;;;;;5032055;28;20201;-68
2022/04/13 02:25:36;;;;;;;4.25;2.70;;;20.70;49.50;;;;;;5031950;28;20273;-69
2022/04/13 02:28:06;;;;;;;3.15;2.30;;;20.70;49.40;;;;;;5033309;28;20175;-67
2022/04/13 02:30:32;;;;;;;3.03;2.25;;;20.70;49.50;;;;;;5048918;28;20202;-68
2022/04/13 02:32:59;;;;;;;4.07;2.50;;;20.70;49.40;;;;;;5033004;28;20175;-68
2022/04/13 02:35:25;;;;;;;3.00;2.60;;;20.70;49.50;;;;;;5048590;28;20241;-69
2022/04/13 02:37:51;;;;;;;2.83;2.42;;;20.70;49.40;;;;;;5032086;28;20183;-68
2022/04/13 02:40:16;;;;;;;2.85;2.58;;;20.70;49.40;;;;;;5032151;28;20191;-69
2022/04/13 02:42:42;;;;;;;2.72;2.47;;;20.70;49.50;;;;;;5040746;28;20187;-68
2022/04/13 02:45:09;;;;;;;3.78;2.40;;;20.70;49.40;;;;;;5068119;28;20218;-68
2022/04/13 02:47:36;;;;;;;2.65;2.45;;;20.70;49.40;;;;;;5068489;28;20218;-69
2022/04/13 02:50:04;;;;;;;2.63;2.42;;;20.70;49.40;;;;;;5051618;28;20269;-68
2022/04/13 02:52:29;;;;;;;2.70;2.40;;;20.60;49.30;;;;;;5068360;28;20187;-68
2022/04/13 02:54:57;;;;;;;1.95;1.73;;;20.70;50.00;;;;;;5052599;28;20209;-68
2022/04/13 02:57:22;;;;;;;3.00;2.30;;;20.70;49.40;;;;;;5068143;28;20190;-68
2022/04/13 02:59:49;;;;;;;2.42;2.22;;;20.60;49.40;;;;;;5051451;28;20251;-69
2022/04/13 03:02:16;;;;;;;2.25;1.80;;;20.60;49.40;;;;;;5052693;28;20189;-68
2022/04/13 03:07:34;;;;;;;2.38;2.17;;;20.60;49.40;;;;;;5011449;28;20254;-68
2022/04/13 03:10:00;;;;;;;2.03;1.83;;;20.60;49.40;;;;;;5012594;28;20185;-68
2022/04/13 03:12:26;;;;;;;2.55;2.08;;;20.60;49.40;;;;;;4996760;28;20188;-69
2022/04/13 03:14:52;;;;;;;2.33;2.05;;;20.60;49.40;;;;;;5012124;28;20227;-68
2022/04/13 03:17:18;;;;;;;2.45;2.25;;;20.60;49.40;;;;;;4996181;28;20200;-68
2022/04/13 03:19:44;;;;;;;2.90;2.33;;;20.60;49.30;;;;;;4996075;28;20186;-68
2022/04/13 03:22:10;;;;;;;2.85;2.55;;;20.60;49.40;;;;;;4995985;28;20188;-68
2022/04/13 03:24:36;;;;;;;2.42;2.22;;;20.60;49.40;;;;;;4979740;28;20212;-68
2022/04/13 03:27:02;;;;;;;2.40;2.20;;;20.60;49.40;;;;;;4995814;28;20210;-67
2022/04/13 03:29:28;;;;;;;3.08;2.50;;;20.60;49.20;;;;;;5013610;28;20191;-69
2022/04/13 03:31:54;;;;;;;2.67;2.47;;;20.60;49.30;;;;;;5013347;28;20276;-68
2022/04/13 03:34:22;;;;;;;3.00;2.15;;;20.60;49.30;;;;;;4995672;28;20199;-68
2022/04/13 03:36:50;;;;;;;2.35;2.00;;;20.60;49.20;;;;;;4995845;28;20211;-68
2022/04/13 03:39:16;;;;;;;2.28;2.08;;;20.60;49.30;;;;;;4995692;28;20240;-67
2022/04/13 03:41:43;;;;;;;2.05;1.85;;;20.60;49.30;;;;;;4995742;28;20182;-69
2022/04/13 03:44:09;;;;;;;2.83;2.15;;;20.60;49.30;;;;;;4994759;28;20246;-68
2022/04/13 03:46:35;;;;;;;2.20;2.00;;;20.60;49.40;;;;;;5012122;28;20200;-68
2022/04/13 03:49:00;;;;;;;2.10;1.77;;;20.60;49.40;;;;;;4995686;28;20191;-68
2022/04/13 03:51:26;;;;;;;2.25;1.90;;;20.60;49.40;;;;;;4995504;28;20235;-68
2022/04/13 03:53:52;;;;;;;2.45;2.00;;;20.60;49.40;;;;;;4995354;28;20258;-68
2022/04/13 03:56:18;;;;;;;2.03;1.83;;;20.60;49.40;;;;;;4995518;28;20242;-68
2022/04/13 03:58:44;;;;;;;2.13;1.90;;;20.50;49.30;;;;;;4995321;28;20195;-68
2022/04/13 04:01:11;;;;;;;2.63;2.30;;;20.60;49.40;;;;;;4995406;28;20184;-67
2022/04/13 04:03:37;;;;;;;1.98;1.88;;;20.60;49.40;;;;;;5012845;28;20191;-68
2022/04/13 04:06:04;;;;;;;2.10;1.90;;;20.50;49.30;;;;;;5011649;28;20705;-69
2022/04/13 04:08:32;;;;;;;2.13;1.85;;;20.60;49.40;;;;;;4995503;28;20207;-69
2022/04/13 04:10:58;;;;;;;2.88;2.10;;;20.50;49.30;;;;;;4979426;28;20263;-68
2022/04/13 04:13:24;;;;;;;2.42;2.22;;;20.50;49.30;;;;;;4995442;28;20181;-69
2022/04/13 04:15:50;;;;;;;3.00;2.05;;;20.50;49.30;;;;;;4994848;28;20214;-69
2022/04/13 04:18:16;;;;;;;2.53;2.33;;;20.60;49.40;;;;;;4995377;28;20192;-68
2022/04/13 04:20:42;;;;;;;2.15;1.98;;;20.50;49.20;;;;;;4995474;28;20192;-69
2022/04/13 04:23:08;;;;;;;2.28;2.08;;;20.60;49.30;;;;;;5011504;28;20239;-69
2022/04/13 04:25:34;;;;;;;2.33;2.10;;;20.50;49.20;;;;;;5007119;28;20721;-69
2022/04/13 04:27:59;;;;;;;2.78;2.15;;;20.50;49.20;;;;;;4995100;28;20709;-68
2022/04/13 04:30:25;;;;;;;2.25;2.05;;;20.50;49.10;;;;;;5011488;28;20182;-69
2022/04/13 04:32:51;;;;;;;2.30;1.75;;;20.50;49.20;;;;;;5011326;28;20176;-69
2022/04/13 04:35:17;;;;;;;2.13;2.00;;;20.50;49.10;;;;;;4994695;28;20230;-70
2022/04/13 04:37:42;;;;;;;1.98;1.77;;;20.50;49.20;;;;;;4994685;28;20192;-69
2022/04/13 04:40:09;;;;;;;1.92;1.83;;;20.50;49.10;;;;;;4994889;28;20666;-69
2022/04/13 04:42:46;;;;;;;2.22;1.67;;;20.50;49.20;;;;;;5011258;28;20183;-70
2022/04/13 04:45:16;;;;;;;2.58;1.80;;;20.50;49.20;;;;;;4994056;28;20227;-67
2022/04/13 04:47:42;;;;;;;2.03;1.83;;;20.50;49.30;;;;;;5012217;28;20173;-69
2022/04/13 04:50:10;;;;;;;2.20;1.92;;;20.50;49.20;;;;;;4994921;28;20184;-69
2022/04/13 04:52:44;;;;;;;2.50;2.08;;;20.40;49.20;;;;;;4995189;28;20271;-68
2022/04/13 04:55:12;;;;;;;2.10;1.92;;;20.40;49.20;;;;;;4978448;28;20274;-69
2022/04/13 04:57:38;;;;;;;2.53;2.33;;;20.50;49.20;;;;;;4998638;28;20214;-69
2022/04/13 05:00:12;;;;;;;2.35;2.17;;;20.40;49.10;;;;;;4999015;28;20549;-69
2022/04/13 05:02:38;;;;;;;2.42;2.10;;;20.40;49.00;;;;;;4998986;28;20199;-69
2022/04/13 05:05:06;;;;;;;2.17;1.98;;;20.40;49.00;;;;;;4998101;28;20208;-69
2022/04/13 05:07:32;;;;;;;2.03;1.92;;;20.40;49.00;;;;;;4998432;28;20180;-69
2022/04/13 05:09:58;;;;;;;2.88;2.10;;;20.40;49.00;;;;;;4982483;28;20759;-69
2022/04/13 05:12:25;;;;;;;2.45;1.80;;;20.40;49.00;;;;;;4982455;28;20267;-69
2022/04/13 05:14:54;;;;;;;2.50;2.30;;;20.40;49.00;;;;;;4998399;28;20196;-68
2022/04/13 05:17:21;;;;;;;2.53;2.05;;;20.40;49.00;;;;;;4982280;28;20215;-68
2022/04/13 05:19:47;;;;;;;1.95;1.85;;;20.50;49.10;;;;;;5014916;28;20192;-69
2022/04/13 05:22:15;;;;;;;2.05;1.85;;;20.40;49.00;;;;;;4998490;28;20184;-69
2022/04/13 05:24:41;;;;;;;2.55;2.30;;;20.40;49.10;;;;;;4980009;28;20204;-69
2022/04/13 05:27:08;;;;;;;2.30;1.90;;;20.40;49.10;;;;;;4978931;28;20213;-69
2022/04/13 05:29:34;;;;;;;2.38;2.17;;;20.50;49.20;;;;;;4994656;28;20184;-69
2022/04/13 05:32:00;;;;;;;2.78;2.42;;;20.50;49.20;;;;;;4978923;28;20185;-69
2022/04/13 05:34:26;;;;;;;2.45;2.25;;;20.50;49.20;;;;;;4978341;28;20191;-69
2022/04/13 05:36:51;;;;;;;2.45;2.25;;;20.50;49.20;;;;;;4994619;28;20205;-68
2022/04/13 05:39:17;;;;;;;2.38;2.17;;;20.50;49.30;;;;;;4978448;28;20184;-69
2022/04/13 05:41:43;;;;;;;3.00;2.67;;;20.50;49.30;;;;;;4995037;28;20189;-69
2022/04/13 05:44:08;;;;;;;2.70;2.50;;;20.50;49.20;;;;;;4995346;28;20279;-68
2022/04/13 05:46:34;;;;;;;3.50;2.17;;;20.50;49.20;;;;;;4981327;28;20208;-69
2022/04/13 05:49:01;;;;;;;3.30;2.78;;;20.50;49.60;;;;;;4994454;28;20196;-69
2022/04/13 05:51:27;;;;;;;3.60;2.90;;;20.50;49.30;;;;;;4978236;28;20192;-69
2022/04/13 05:53:52;;;;;;;3.05;2.78;;;20.50;49.30;;;;;;4978405;28;20603;-69
2022/04/13 05:56:18;;;;;;;3.30;3.00;;;20.50;49.30;;;;;;4978102;28;20205;-68
2022/04/13 05:58:44;;;;;;;3.08;2.72;;;20.50;49.20;;;;;;4997267;28;20664;-69
2022/04/13 06:01:10;;;;;;;4.22;3.10;;;20.50;49.20;;;;;;4997787;28;20168;-69
2022/04/13 06:03:36;;;;;;;3.03;2.78;;;20.50;49.20;;;;;;4997511;28;20263;-69
2022/04/13 06:06:01;;;;;;;2.88;2.60;;;20.60;49.30;;;;;;4997263;28;20278;-69
2022/04/13 06:08:27;;;;;;;3.05;2.75;;;20.60;49.20;;;;;;4977152;28;20185;-69
2022/04/13 06:10:53;;;;;;;3.42;2.45;;;20.60;49.20;;;;;;4982504;28;20187;-69
2022/04/13 06:13:18;;;;;;;3.22;2.35;;;20.50;49.10;;;;;;5031549;28;20229;-69
2022/04/13 06:15:44;;;;;;;2.60;2.40;;;20.60;49.20;;;;;;5000642;28;20212;-68
2022/04/13 06:18:11;;;;;;;3.25;2.53;;;20.60;49.20;;;;;;5013437;28;20195;-69
2022/04/13 06:20:37;;;;;;;4.22;2.45;;;20.50;49.20;;;;;;4994454;28;20195;-69
2022/04/13 06:23:03;;;;;;;3.65;2.78;;;20.60;49.20;;;;;;4997140;28;20181;-69
2022/04/13 06:25:29;;;;;;;3.03;2.50;;;20.60;49.30;;;;;;4993216;28;20216;-69
2022/04/13 06:27:55;;;;;;;3.55;2.60;;;20.60;49.20;;;;;;5012609;28;20195;-69
2022/04/13 06:30:21;;;;;;;2.90;2.58;;;20.60;49.20;;;;;;4993498;28;20185;-69
2022/04/13 06:32:47;;;;;;;3.10;2.33;;;20.60;49.20;;;;;;4977350;28;20181;-69
2022/04/13 06:35:16;;;;;;;3.00;2.40;;;20.60;49.30;;;;;;4961130;28;20244;-70
2022/04/13 06:37:47;;;;;;;3.45;2.30;;;20.70;49.30;;;;;;4977228;28;20189;-69
2022/04/13 06:40:14;;;;;;;2.70;2.50;;;20.70;49.30;;;;;;4994727;28;20177;-70
2022/04/13 06:42:40;;;;;;;2.70;2.50;;;20.70;49.30;;;;;;4977458;28;20197;-69
2022/04/13 06:45:14;;;;;;;4.40;2.63;;;20.70;49.30;;;;;;4994372;28;20209;-69
2022/04/13 06:47:41;;;;;;;3.20;2.78;;;20.70;49.20;;;;;;4961156;28;20173;-70
2022/04/13 06:50:09;;;;;;;3.15;2.88;;;20.70;49.20;;;;;;4986255;28;20214;-70
2022/04/13 06:52:36;;;;;;;3.58;2.50;;;20.70;49.20;;;;;;5005493;28;20203;-69
2022/04/13 06:55:04;;;;;;;3.20;2.90;;;20.70;49.20;;;;;;5011688;28;20199;-69
2022/04/13 06:57:33;;;;;;;3.10;2.80;;;20.70;49.20;;;;;;4993847;28;20180;-70
2022/04/13 06:59:59;;;;;;;2.58;2.38;;;20.80;49.20;;;;;;4996301;28;20192;-69
2022/04/13 07:02:26;;;;;;;3.08;2.78;;;20.80;49.40;;;;;;5012774;28;20252;-69
2022/04/13 07:04:53;;;;;;;3.17;2.40;;;20.80;49.20;;;;;;4979943;28;20226;-69
2022/04/13 07:07:19;;;;;;;2.95;2.75;;;20.80;49.20;;;;;;5012599;28;20176;-69
2022/04/13 07:09:45;;;;;;;2.70;2.50;;;20.80;49.20;;;;;;4996475;28;20188;-70
2022/04/13 07:12:11;;;;;;;6.13;2.60;;;20.80;49.20;;;;;;4996061;28;20219;-69
2022/04/13 07:14:36;;;;;;;2.95;2.75;;;20.90;49.30;;;;;;4995902;28;20191;-70
2022/04/13 07:17:03;;;;;;;3.08;2.65;;;20.90;49.30;;;;;;4995909;28;20200;-69
2022/04/13 07:19:28;;;;;;;2.63;2.42;;;20.90;49.20;;;;;;4995991;28;20192;-70
2022/04/13 07:21:54;;;;;;;2.85;2.35;;;20.90;49.30;;;;;;5012322;28;20721;-69
2022/04/13 07:24:20;;;;;;;3.03;2.50;;;20.90;49.30;;;;;;5012146;28;20188;-69
2022/04/13 07:26:46;;;;;;;3.60;2.90;;;20.90;49.20;;;;;;4996082;28;20207;-68
2022/04/13 07:29:11;;;;;;;2.83;2.53;;;20.90;49.50;;;;;;5012131;28;20184;-68
2022/04/13 07:31:38;;;;;;;3.03;2.78;;;20.90;49.40;;;;;;4995780;28;20233;-69
2022/04/13 07:34:04;;;;;;;3.13;2.63;;;21.00;49.50;;;;;;4995715;28;20196;-68
2022/04/13 07:36:30;;;;;;;2.50;2.30;;;21.00;49.50;;;;;;5013276;28;20209;-68
2022/04/13 07:38:55;;;;;;;3.65;2.63;;;21.00;49.50;;;;;;5013246;28;20180;-69
2022/04/13 07:41:21;;;;;;;3.60;2.70;;;21.00;49.70;;;;;;4995993;28;20237;-69
2022/04/13 07:43:49;;;;;;;2.80;2.40;;;21.10;49.90;;;;;;4979376;28;20699;-69
2022/04/13 07:46:15;;;;;;;4.07;2.40;;;21.10;49.90;;;;;;4995528;28;20220;-69
2022/04/13 07:48:41;;;;;;;4.78;2.80;;;21.10;49.90;;;;;;5012016;28;20287;-69
2022/04/13 07:51:07;;;;;;;2.60;2.40;;;21.10;49.90;;;;;;4995731;28;20231;-69
2022/04/13 07:53:33;;;;;;;2.50;2.30;;;21.10;50.00;;;;;;4995529;28;20234;-69
2022/04/13 07:55:58;;;;;;;2.53;2.33;;;21.10;49.90;;;;;;4991931;28;20243;-69
2022/04/13 07:58:24;;;;;;;4.95;2.38;;;21.10;50.00;;;;;;4993439;28;20197;-68
2022/04/13 08:00:50;;;;;;;3.13;2.40;;;21.10;49.90;;;;;;4976027;28;20242;-69
2022/04/13 08:03:15;;;;;;;2.95;2.20;;;21.10;49.80;;;;;;4975819;28;20193;-69
2022/04/13 08:05:41;;;;;;;3.00;2.33;;;21.20;50.00;;;;;;4975669;28;20227;-68
2022/04/13 08:08:07;;;;;;;3.38;2.25;;;21.10;49.80;;;;;;4976054;28;20180;-69
2022/04/13 08:10:33;;;;;;;3.30;2.20;;;21.10;49.90;;;;;;4979355;28;20184;-69
2022/04/13 08:12:58;;;;;;;3.28;2.28;;;21.10;49.80;;;;;;4991930;28;20207;-69
2022/04/13 08:15:24;;;;;;;2.28;2.08;;;21.20;49.90;;;;;;5011398;28;20196;-68
2022/04/13 08:17:51;;;;;;;3.47;2.13;;;21.20;49.90;;;;;;5011639;28;20560;-69
2022/04/13 08:20:17;;;;;;;4.75;2.47;;;21.20;49.90;;;;;;5011887;28;20242;-69
2022/04/13 08:22:44;;;;;;;2.58;2.05;;;21.20;49.90;;;;;;4995011;28;20168;-69
2022/04/13 08:25:10;;;;;;;2.45;2.08;;;21.20;49.90;;;;;;4995006;28;20243;-69
2022/04/13 08:27:36;;;;;;;4.90;2.20;;;21.20;49.90;;;;;;4985955;28;20179;-69
2022/04/13 08:30:03;;;;;;;2.30;2.10;;;21.20;49.90;;;;;;4991968;28;20177;-69
2022/04/13 08:32:29;;;;;;;2.47;2.28;;;21.20;49.90;;;;;;4995711;28;20180;-69
2022/04/13 08:34:54;;;;;;;2.35;2.15;;;21.20;49.80;;;;;;5001529;28;20195;-69
2022/04/13 08:37:22;;;;;;;2.75;2.47;;;21.20;49.90;;;;;;5001370;28;20176;-68
2022/04/13 08:39:48;;;;;;;2.10;1.90;;;21.20;49.90;;;;;;5001730;28;20195;-69
2022/04/13 08:42:45;;;;;;;3.67;2.40;;;21.20;49.80;;;;;;5001658;28;20184;-69
2022/04/13 08:45:36;;;;;;;3.80;2.30;;;21.20;49.90;;;;;;5001120;28;20242;-69
2022/04/13 08:48:05;;;;;;;2.22;2.03;;;21.20;49.90;;;;;;5001408;28;20172;-69
2022/04/13 08:50:31;;;;;;;2.17;1.90;;;21.20;49.80;;;;;;5001627;28;20228;-69
2022/04/13 08:53:02;;;;;;;4.43;1.95;;;21.20;49.90;;;;;;5001509;28;20187;-69
2022/04/13 08:55:31;;;;;;;2.40;1.70;;;21.20;49.90;;;;;;4998102;28;20302;-70
2022/04/13 08:58:20;;;;;;;2.38;1.90;;;21.20;49.90;;;;;;4997937;28;20188;-69
2022/04/13 09:00:53;;;;;;;4.15;2.00;;;21.20;49.90;;;;;;4982666;28;20184;-69
2022/04/13 09:03:43;;;;;;;3.17;1.95;;;21.20;49.90;;;;;;5014704;28;20284;-69
2022/04/13 09:06:10;;;;;;;3.45;1.90;;;21.20;50.00;;;;;;5026808;23;20706;-71
2022/04/13 09:08:54;;;;;;;2.50;2.00;;;21.20;50.00;;;;;;5030393;28;20213;-71
2022/04/13 09:11:21;;;;;;;4.45;2.35;;;21.20;50.10;;;;;;5031215;28;20186;-70
2022/04/13 09:13:47;;;;;;;2.72;1.98;;;21.20;50.10;;;;;;5037297;28;20183;-71
2022/04/13 09:16:15;;;;;;;3.67;2.13;;;21.20;50.20;;;;;;5038237;28;20225;-70
2022/04/13 09:18:43;;;;;;;3.65;2.20;;;21.20;50.10;;;;;;5019050;28;20196;-69
2022/04/13 09:21:17;;;;;;;2.63;1.80;;;21.20;50.10;;;;;;5021223;28;20310;-70
2022/04/13 09:23:44;;;;;;;3.75;1.95;;;21.20;50.10;;;;;;5018679;28;20554;-70
2022/04/13 09:26:10;;;;;;;2.88;1.90;;;21.20;50.10;;;;;;5000925;28;20204;-70
2022/04/13 09:28:37;;;;;;;3.38;1.90;;;21.20;50.10;;;;;;5017689;28;20188;-70
2022/04/13 09:31:05;;;;;;;2.60;2.10;;;21.20;50.20;;;;;;5017356;28;20678;-69
2022/04/13 09:33:31;;;;;;;3.30;1.90;;;21.20;50.20;;;;;;5033775;28;20188;-70
2022/04/13 09:35:57;;;;;;;2.70;1.83;;;21.20;50.20;;;;;;5017368;28;20251;-70
2022/04/13 09:38:24;;;;;;;3.03;2.10;;;21.20;50.20;;;;;;5034018;28;20212;-70
2022/04/13 09:40:54;;;;;;;3.05;1.90;;;21.20;50.20;;;;;;5017584;28;20192;-70
2022/04/13 09:43:22;;;;;;;4.18;2.10;;;21.20;50.20;;;;;;5013747;28;20196;-70
2022/04/13 09:45:52;;;;;;;2.78;1.85;;;21.20;50.20;;;;;;5014117;28;20216;-70
2022/04/13 09:48:28;;;;;;;3.60;1.98;;;21.20;50.40;;;;;;5015345;28;20188;-70
2022/04/13 09:50:58;;;;;;;2.70;1.70;;;21.20;50.80;;;;;;5014114;28;20275;-70
2022/04/13 09:53:23;;;;;;;2.83;2.10;;;21.20;51.00;;;;;;5041372;28;20573;-68
2022/04/13 09:55:55;;;;;;;3.33;2.00;;;21.20;51.10;;;;;;5010746;28;20708;-70
2022/04/13 09:58:25;;;;;;;3.30;2.08;;;21.20;50.80;;;;;;5013777;28;20202;-70
2022/04/13 10:00:53;;;;;;;2.97;2.30;;;21.20;50.80;;;;;;5013913;28;20188;-70
2022/04/13 10:03:23;;;;;;;3.05;2.10;;;21.20;50.90;;;;;;5013695;28;20188;-70
2022/04/13 10:05:53;;;;;;;4.80;2.17;;;21.20;51.20;;;;;;5029795;28;20211;-70
2022/04/13 10:08:23;;;;;;;2.83;2.00;;;21.20;50.80;;;;;;5030255;28;20199;-70
2022/04/13 10:10:52;;;;;;;4.97;2.20;;;21.20;50.90;;;;;;5014860;28;20180;-71
2022/04/13 10:13:35;;;;;;;1.77;1.67;;;21.20;51.00;;;;;;5013675;28;20180;-70
2022/04/13 10:16:07;;;;;;;2.72;1.80;;;21.20;51.60;;;;;;5014741;28;20212;-70
2022/04/13 10:19:00;;;;;;;3.00;1.85;;;21.20;51.40;;;;;;5013398;28;20187;-71
2022/04/13 10:21:52;;;;;;;1.80;1.70;;;21.20;51.40;;;;;;5013972;28;20173;-70
2022/04/13 10:24:36;;;;;;;2.95;1.65;;;21.20;51.60;;;;;;5014505;28;20187;-71
2022/04/13 10:27:16;;;;;;;3.15;1.98;;;21.20;51.50;;;;;;5029715;28;20591;-70
2022/04/13 10:29:45;;;;;;;3.40;1.63;;;21.20;51.50;;;;;;5013419;28;20223;-70
2022/04/13 10:32:25;;;;;;;2.10;1.58;;;21.20;51.70;;;;;;5018712;28;20210;-70
2022/04/13 10:34:55;;;;;;;2.65;2.30;;;21.20;52.00;;;;;;5029782;28;20203;-71
2022/04/13 10:37:23;;;;;;;3.90;2.30;;;21.20;52.20;;;;;;5026229;28;20213;-71
2022/04/13 10:39:52;;;;;;;2.15;1.50;;;21.20;52.20;;;;;;5026642;28;20685;-71
2022/04/13 10:42:19;;;;;;;1.60;1.50;;;21.20;52.20;;;;;;4994746;28;20193;-71
2022/04/13 10:45:02;;;;;;;1.90;1.60;;;21.20;52.20;;;;;;5026323;28;20244;-71
2022/04/13 10:47:52;;;;;;;2.92;1.70;;;21.20;52.50;;;;;;4994533;28;20212;-71
2022/04/13 10:50:30;;;;;;;2.83;1.88;;;21.20;52.20;;;;;;5026120;28;20331;-70
2022/04/13 10:53:19;;;;;;;4.35;1.90;;;21.20;52.20;;;;;;5009758;28;20200;-71
2022/04/13 10:55:59;;;;;;;1.60;1.50;;;21.20;52.90;;;;;;4994047;28;20204;-71
2022/04/13 10:59:17;;;;;;;3.42;1.65;;;21.20;52.50;;;;;;5011172;28;20639;-71
2022/04/13 11:01:59;;;;;;;3.08;1.65;;;21.20;52.60;;;;;;5016183;28;20175;-70
2022/04/13 11:04:28;;;;;;;3.42;1.75;;;21.20;52.40;;;;;;5032637;28;20547;-70
2022/04/13 11:06:55;;;;;;;4.60;1.80;;;21.20;52.80;;;;;;5033397;28;20234;-70
2022/04/13 11:09:33;;;;;;;3.95;2.00;;;21.20;52.90;;;;;;5032413;28;20183;-70
2022/04/13 11:12:01;;;;;;;2.03;1.75;;;21.20;52.80;;;;;;5033499;28;20226;-71
2022/04/13 11:14:27;;;;;;;2.45;1.92;;;21.20;53.00;;;;;;5015989;28;20211;-71
2022/04/13 11:17:05;;;;;;;3.45;1.63;;;21.20;53.10;;;;;;5017657;28;20243;-70
2022/04/13 11:19:31;;;;;;;2.63;2.00;;;21.20;53.00;;;;;;5013277;28;20183;-71
2022/04/13 11:21:57;;;;;;;2.08;1.60;;;21.20;53.30;;;;;;5012466;28;20199;-71
2022/04/13 11:24:41;;;;;;;2.72;1.60;;;21.20;53.30;;;;;;5012258;28;20184;-71
2022/04/13 11:27:10;;;;;;;2.40;1.75;;;21.20;53.40;;;;;;5012128;28;20299;-71
2022/04/13 11:29:57;;;;;;;3.38;1.70;;;21.20;53.50;;;;;;5025680;28;20188;-70
2022/04/13 11:32:35;;;;;;;1.73;1.60;;;21.20;53.40;;;;;;5037108;28;20172;-70
2022/04/13 11:35:03;;;;;;;3.08;1.92;;;21.20;53.60;;;;;;4992664;28;20173;-70
2022/04/13 11:37:35;;;;;;;3.22;1.77;;;21.20;53.80;;;;;;5003112;28;20235;-70
2022/04/13 11:40:10;;;;;;;2.15;1.73;;;21.20;53.50;;;;;;5013239;28;20176;-70
2022/04/13 11:42:39;;;;;;;1.88;1.70;;;21.30;53.70;;;;;;5012357;28;20191;-71
2022/04/13 11:45:14;;;;;;;4.50;2.08;;;21.30;53.70;;;;;;5011804;28;20200;-71
2022/04/13 11:47:54;;;;;;;2.90;1.73;;;21.30;53.50;;;;;;5013123;28;20215;-71
2022/04/13 11:50:32;;;;;;;1.80;1.60;;;21.20;53.40;;;;;;5011789;28;20191;-71
2022/04/13 11:53:10;;;;;;;2.30;1.83;;;21.20;53.40;;;;;;5013357;28;20172;-71
2022/04/13 11:55:44;;;;;;;3.38;1.85;;;21.30;53.60;;;;;;5011552;28;20242;-71
2022/04/13 11:58:12;;;;;;;2.80;1.73;;;21.30;54.00;;;;;;4995241;28;20274;-72
2022/04/13 12:00:59;;;;;;;3.30;1.60;;;21.20;53.80;;;;;;5012933;28;20250;-71
2022/04/13 12:03:31;;;;;;;2.53;1.77;;;21.30;53.50;;;;;;5011685;28;20184;-71
2022/04/13 12:06:22;;;;;;;3.17;1.67;;;21.30;53.60;;;;;;5011852;28;20219;-71
2022/04/13 12:08:55;;;;;;;3.22;1.70;;;21.30;53.70;;;;;;5011632;28;20248;-70
2022/04/13 12:11:37;;;;;;;2.28;1.83;;;21.30;53.70;;;;;;5011794;28;20636;-70
2022/04/13 12:14:03;;;;;;;1.70;1.58;;;21.30;53.80;;;;;;5012822;28;20168;-70
2022/04/13 12:16:36;;;;;;;2.08;1.60;;;21.30;54.20;;;;;;5012532;28;20204;-71
2022/04/13 12:19:12;;;;;;;3.30;1.70;;;21.30;53.40;;;;;;5018865;28;20184;-71
2022/04/13 12:21:40;;;;;;;3.03;1.70;;;21.30;53.80;;;;;;5028219;28;20188;-70
2022/04/13 12:24:09;;;;;;;3.33;2.05;;;21.30;53.70;;;;;;5012750;28;20632;-71
2022/04/13 12:26:44;;;;;;;2.40;1.95;;;21.30;53.60;;;;;;5007793;28;20343;-71
2022/04/13 12:29:20;;;;;;;2.78;1.63;;;21.30;53.70;;;;;;4991865;28;20181;-71
2022/04/13 12:31:54;;;;;;;2.95;1.63;;;21.30;53.70;;;;;;5001149;28;20194;-70
2022/04/13 12:34:26;;;;;;;3.33;1.58;;;21.30;53.90;;;;;;5011243;28;20674;-71
2022/04/13 12:36:58;;;;;;;3.70;1.60;;;21.30;53.60;;;;;;5011281;28;20261;-71
2022/04/13 12:39:32;;;;;;;5.22;1.90;;;21.30;53.80;;;;;;5011297;28;20194;-71
2022/04/13 12:42:01;;;;;;;2.95;1.65;;;21.30;53.80;;;;;;5011512;28;20207;-71
2022/04/13 12:44:29;;;;;;;3.33;1.92;;;21.30;53.70;;;;;;5010922;28;20190;-72
2022/04/13 12:47:10;;;;;;;3.13;2.10;;;21.30;53.80;;;;;;5012454;28;20210;-71
2022/04/13 12:49:37;;;;;;;2.88;1.90;;;21.30;53.60;;;;;;5011307;28;20187;-70
2022/04/13 12:52:06;;;;;;;2.10;1.90;;;21.30;53.80;;;;;;5011486;28;20259;-71
2022/04/13 12:54:32;;;;;;;3.33;1.60;;;21.30;53.80;;;;;;5011470;28;20310;-71
2022/04/13 12:57:00;;;;;;;2.15;1.88;;;21.30;53.60;;;;;;5012351;28;20639;-71
2022/04/13 12:59:26;;;;;;;3.83;1.70;;;21.30;53.50;;;;;;5011039;28;20184;-70